Time;durP1;ratioP1;P1;durP2;ratioP2;P2;SDS_P1;SDS_P2;PMS_P1;PMS_P2;Temp;Humidity;BMP_temperature;BMP_pressure;BME280_temperature;BME280_humidity;BME280_pressure;Samples;Min_cycle;Max_cycle;Signal;HPM_P1;HPM_P2
2022/01/23 00:00:16;;;;;;;3.38;1.30;;;8.40;99.90;;;;;;10540332;28;20075;-62
2022/01/23 00:05:19;;;;;;;3.10;1.52;;;8.30;99.90;;;;;;10515710;28;20032;-62
2022/01/23 00:10:20;;;;;;;2.33;1.60;;;8.30;99.90;;;;;;10533663;28;20071;-62
2022/01/23 00:20:40;;;;;;;2.67;1.40;;;8.30;99.90;;;;;;10526005;28;20123;-63
2022/01/23 00:31:12;;;;;;;7.22;1.90;;;8.30;99.90;;;;;;10483053;28;20044;-62
2022/01/23 00:36:13;;;;;;;5.07;1.40;;;8.30;99.90;;;;;;10507903;28;20498;-62
2022/01/23 00:41:13;;;;;;;3.03;1.35;;;8.30;99.90;;;;;;10520549;28;20052;-62
2022/01/23 00:51:18;;;;;;;3.13;1.65;;;8.30;99.90;;;;;;10526157;28;20040;-63
2022/01/23 00:56:19;;;;;;;3.78;1.42;;;8.30;99.90;;;;;;10531585;28;20027;-63
2022/01/23 01:01:20;;;;;;;4.13;1.73;;;8.30;99.90;;;;;;10549017;28;20063;-62
2022/01/23 01:06:21;;;;;;;4.95;1.63;;;8.30;99.90;;;;;;10533165;28;20136;-62
2022/01/23 01:37:58;;;;;;;3.15;1.58;;;8.30;99.90;;;;;;10524074;28;20085;-62
2022/01/23 01:42:59;;;;;;;3.50;1.60;;;8.30;99.90;;;;;;10530371;28;20443;-63
2022/01/23 01:48:01;;;;;;;2.55;1.50;;;8.30;99.90;;;;;;10525002;28;20031;-63
2022/01/23 01:53:02;;;;;;;3.38;1.90;;;8.30;99.90;;;;;;10519905;28;20673;-62
2022/01/23 01:58:05;;;;;;;2.20;1.40;;;8.30;99.90;;;;;;10531856;28;20024;-62
2022/01/23 02:03:25;;;;;;;3.00;1.70;;;8.30;99.90;;;;;;10525204;28;20069;-62
2022/01/23 02:08:28;;;;;;;1.95;1.10;;;8.30;99.90;;;;;;10517967;28;20123;-63
2022/01/23 02:55:34;;;;;;;2.88;1.42;;;8.30;99.90;;;;;;10523319;28;20027;-62
2022/01/23 03:00:47;;;;;;;2.58;1.50;;;8.30;99.90;;;;;;10515902;28;20139;-62
2022/01/23 03:06:17;;;;;;;3.22;1.35;;;8.40;99.90;;;;;;10522263;28;20038;-62
2022/01/23 03:11:25;;;;;;;3.50;1.48;;;8.30;99.90;;;;;;10531199;28;20063;-62
2022/01/23 03:26:35;;;;;;;3.45;1.40;;;8.30;99.90;;;;;;10519182;28;20036;-62
2022/01/23 03:32:19;;;;;;;2.35;1.25;;;8.30;99.90;;;;;;10522843;28;20486;-62
2022/01/23 03:37:03;;;;;;;1.75;1.17;;;8.30;99.90;;;;;;10523941;28;20455;-62
2022/01/23 03:42:04;;;;;;;2.92;1.48;;;8.30;99.90;;;;;;10526318;28;20039;-62
2022/01/23 03:47:21;;;;;;;2.30;1.33;;;8.30;99.90;;;;;;10526955;28;20410;-62
2022/01/23 03:52:24;;;;;;;2.67;1.23;;;8.30;99.90;;;;;;10509860;28;20028;-63
2022/01/23 03:57:25;;;;;;;2.80;1.42;;;8.30;99.90;;;;;;10535829;28;20028;-62
2022/01/23 04:02:25;;;;;;;2.58;1.30;;;8.30;99.90;;;;;;10528139;28;20047;-62
2022/01/23 04:07:28;;;;;;;3.83;1.30;;;8.30;99.90;;;;;;10531888;28;20021;-63
2022/01/23 04:18:27;;;;;;;3.13;1.20;;;8.30;99.90;;;;;;10526185;28;20036;-62
2022/01/23 04:33:57;;;;;;;3.10;1.50;;;8.20;99.90;;;;;;10533266;28;20058;-62
2022/01/23 05:00:15;;;;;;;;;;;8.20;99.90;;;;;;10548439;28;20085;-62
2022/01/23 05:05:18;;;;;;;2.25;1.23;;;8.20;99.90;;;;;;10525762;28;19961;-63
2022/01/23 05:10:19;;;;;;;2.50;1.35;;;8.20;99.90;;;;;;10539871;28;20406;-62
2022/01/23 05:15:20;;;;;;;2.13;1.20;;;8.20;99.90;;;;;;10513729;28;20047;-62
2022/01/23 05:20:25;;;;;;;2.30;1.20;;;8.30;99.90;;;;;;10533008;28;20040;-62
2022/01/23 05:25:29;;;;;;;2.63;1.27;;;8.20;99.90;;;;;;10531860;28;20024;-63
2022/01/23 05:30:30;;;;;;;3.28;0.90;;;8.20;99.90;;;;;;10531339;28;20040;-62
2022/01/23 05:35:31;;;;;;;3.65;1.27;;;8.20;99.90;;;;;;10531185;28;20040;-62
2022/01/23 05:40:32;;;;;;;1.67;1.00;;;8.20;99.90;;;;;;10526356;28;20045;-63
2022/01/23 05:45:37;;;;;;;2.63;1.20;;;8.20;99.90;;;;;;10536099;28;20540;-62
2022/01/23 05:50:38;;;;;;;2.15;1.10;;;8.20;99.90;;;;;;10523640;28;20493;-62
2022/01/23 05:55:39;;;;;;;1.73;1.00;;;8.30;99.90;;;;;;10528193;28;20027;-63
2022/01/23 06:00:40;;;;;;;2.60;1.15;;;8.20;99.90;;;;;;10544350;28;20402;-63
2022/01/23 06:05:40;;;;;;;3.00;1.20;;;8.20;99.90;;;;;;10526902;28;20110;-62
2022/01/23 06:10:53;;;;;;;1.25;0.90;;;8.20;99.90;;;;;;10535625;28;20028;-62
2022/01/23 06:15:54;;;;;;;2.55;1.40;;;8.20;99.90;;;;;;10529875;28;20601;-62
2022/01/23 06:20:55;;;;;;;2.38;1.60;;;8.20;99.90;;;;;;10529465;28;20032;-62
2022/01/23 06:25:56;;;;;;;3.88;1.30;;;8.20;99.90;;;;;;10530876;28;20020;-62
2022/01/23 06:30:57;;;;;;;2.92;1.80;;;8.20;99.90;;;;;;10529423;28;20405;-61
2022/01/23 06:35:58;;;;;;;2.60;1.20;;;8.20;99.90;;;;;;10514694;28;20401;-62
2022/01/23 06:40:58;;;;;;;3.45;1.60;;;8.20;99.90;;;;;;10511354;28;20160;-61
2022/01/23 06:45:59;;;;;;;4.43;2.15;;;8.20;99.90;;;;;;10512296;28;20052;-65
2022/01/23 06:51:00;;;;;;;4.95;1.80;;;8.20;99.90;;;;;;10498147;28;20020;-61
2022/01/23 06:56:00;;;;;;;2.88;1.70;;;8.20;99.90;;;;;;10511224;28;20446;-63
2022/01/23 07:01:04;;;;;;;4.63;2.22;;;8.20;99.90;;;;;;10508863;28;20082;-63
2022/01/23 07:06:05;;;;;;;4.22;2.10;;;8.20;99.90;;;;;;10516801;28;20019;-62
2022/01/23 07:11:06;;;;;;;4.57;2.25;;;8.10;99.90;;;;;;10501641;28;20503;-63
2022/01/23 07:16:07;;;;;;;5.95;2.50;;;8.20;99.90;;;;;;10507192;28;20025;-61
2022/01/23 07:21:08;;;;;;;3.45;2.05;;;8.20;99.90;;;;;;10516235;28;20047;-61
2022/01/23 07:26:09;;;;;;;4.90;2.53;;;8.30;99.90;;;;;;10508569;28;20034;-60
2022/01/23 07:31:10;;;;;;;4.38;2.65;;;8.20;99.90;;;;;;10510393;28;20029;-62
2022/01/23 07:36:11;;;;;;;4.45;2.60;;;8.20;99.90;;;;;;10496370;28;20074;-65
2022/01/23 07:41:12;;;;;;;6.13;2.60;;;8.20;99.90;;;;;;10509927;28;20475;-64
2022/01/23 07:46:13;;;;;;;4.38;2.45;;;8.20;99.90;;;;;;10506406;28;20037;-61
2022/01/23 07:51:13;;;;;;;4.85;2.50;;;8.20;99.90;;;;;;10495329;28;20040;-62
2022/01/23 07:56:14;;;;;;;5.80;2.63;;;8.20;99.90;;;;;;10525903;28;20039;-62
2022/01/23 08:01:15;;;;;;;5.50;3.15;;;8.20;99.90;;;;;;10522087;28;20123;-62
2022/01/23 08:06:16;;;;;;;5.78;3.05;;;8.20;99.90;;;;;;10506994;28;20128;-61
2022/01/23 08:11:16;;;;;;;5.28;3.15;;;8.20;99.90;;;;;;10478772;28;20098;-61
2022/01/23 08:16:17;;;;;;;7.00;3.47;;;8.20;99.90;;;;;;10503172;28;20021;-61
2022/01/23 08:21:18;;;;;;;5.60;3.38;;;8.20;99.90;;;;;;10518179;28;20481;-61
2022/01/23 08:26:21;;;;;;;7.88;3.40;;;8.20;99.90;;;;;;10518643;28;20109;-62
2022/01/23 08:31:21;;;;;;;8.15;3.80;;;8.20;99.90;;;;;;10510007;28;20024;-61
2022/01/23 08:36:22;;;;;;;6.82;4.07;;;8.20;99.90;;;;;;10513074;28;20390;-61
2022/01/23 08:46:43;;;;;;;6.32;3.78;;;8.20;99.90;;;;;;10510016;28;20222;-61
2022/01/23 08:51:44;;;;;;;7.25;3.90;;;8.20;99.90;;;;;;10492276;28;20047;-61
2022/01/23 08:56:45;;;;;;;6.20;3.40;;;8.20;99.90;;;;;;10522935;28;20060;-62
2022/01/23 09:01:47;;;;;;;5.57;3.05;;;8.20;99.90;;;;;;10536742;28;20068;-62
2022/01/23 09:06:48;;;;;;;6.60;3.70;;;8.30;99.90;;;;;;10524789;28;20079;-62
2022/01/23 09:16:54;;;;;;;7.97;3.38;;;8.30;99.90;;;;;;10525935;28;20016;-61
2022/01/23 09:21:56;;;;;;;7.97;3.67;;;8.30;99.90;;;;;;10524298;28;20047;-61
2022/01/23 09:27:03;;;;;;;6.68;3.08;;;8.30;99.90;;;;;;10524146;28;20020;-63
2022/01/23 09:32:08;;;;;;;6.00;3.22;;;8.30;99.90;;;;;;10523640;28;20028;-61
2022/01/23 09:37:11;;;;;;;6.43;3.30;;;8.30;99.90;;;;;;10520665;28;20051;-61
2022/01/23 09:42:13;;;;;;;6.57;3.50;;;8.30;99.90;;;;;;10534444;28;20039;-62
2022/01/23 09:47:17;;;;;;;6.90;3.63;;;8.40;99.90;;;;;;10529197;28;20017;-61
2022/01/23 09:52:20;;;;;;;5.65;3.03;;;8.40;99.90;;;;;;10515325;28;20350;-61
2022/01/23 09:57:24;;;;;;;6.07;3.13;;;8.40;99.90;;;;;;10540857;28;20031;-61
2022/01/23 10:02:25;;;;;;;6.53;3.00;;;8.40;99.90;;;;;;10536666;28;20448;-62
2022/01/23 10:07:27;;;;;;;6.05;3.20;;;8.40;99.90;;;;;;10537588;28;20537;-61
2022/01/23 10:12:28;;;;;;;4.78;2.78;;;8.40;99.90;;;;;;10530125;28;20073;-61
2022/01/23 10:17:29;;;;;;;4.28;2.55;;;8.40;99.90;;;;;;10529289;28;20085;-62
2022/01/23 10:22:30;;;;;;;4.90;2.55;;;8.40;99.90;;;;;;10528503;28;20077;-61
2022/01/23 10:28:00;;;;;;;3.55;2.10;;;8.50;99.90;;;;;;10529428;28;20055;-62
2022/01/23 10:33:04;;;;;;;4.63;2.60;;;8.50;99.90;;;;;;10529454;28;20199;-62
2022/01/23 10:38:08;;;;;;;5.32;2.97;;;8.50;99.90;;;;;;10529008;28;20059;-61
2022/01/23 10:48:39;;;;;;;4.70;2.35;;;8.50;99.90;;;;;;10529142;28;20039;-62
2022/01/23 10:54:01;;;;;;;5.60;2.40;;;8.80;99.90;;;;;;10522444;28;20115;-61
2022/01/23 10:59:12;;;;;;;5.35;2.53;;;8.50;99.90;;;;;;10539970;28;20424;-61
2022/01/23 11:04:14;;;;;;;4.18;2.22;;;8.60;99.90;;;;;;10530261;28;20050;-63
2022/01/23 11:09:14;;;;;;;4.40;2.10;;;8.60;99.90;;;;;;10519393;28;20135;-61
2022/01/23 11:19:40;;;;;;;4.93;2.00;;;8.70;99.90;;;;;;10517928;28;20035;-62
2022/01/23 11:24:45;;;;;;;4.50;2.20;;;8.70;99.90;;;;;;10513931;28;20068;-61
2022/01/23 11:29:59;;;;;;;3.55;2.00;;;8.60;99.90;;;;;;10513476;28;20101;-62
2022/01/23 11:35:07;;;;;;;3.28;1.88;;;8.70;99.90;;;;;;10527230;28;20020;-62
2022/01/23 11:40:26;;;;;;;4.17;1.90;;;8.70;99.90;;;;;;10526187;28;20085;-62
2022/01/23 11:51:06;;;;;;;3.13;1.40;;;8.70;99.90;;;;;;10518486;28;20031;-61
2022/01/23 11:56:29;;;;;;;2.88;1.60;;;8.70;99.90;;;;;;10491194;28;20123;-61
2022/01/23 12:01:30;;;;;;;3.92;1.73;;;8.70;99.90;;;;;;10493931;28;20368;-62
2022/01/23 12:06:30;;;;;;;3.70;1.75;;;8.70;99.90;;;;;;10503167;28;20029;-61
2022/01/23 12:17:03;;;;;;;4.78;1.50;;;8.80;99.90;;;;;;10490759;28;20532;-61
2022/01/23 12:22:28;;;;;;;3.65;1.75;;;8.70;99.90;;;;;;10493022;28;20360;-61
2022/01/23 12:27:30;;;;;;;3.28;1.55;;;8.70;99.90;;;;;;10503472;28;20502;-62
2022/01/23 12:32:32;;;;;;;3.05;1.45;;;8.70;99.90;;;;;;10525799;28;20628;-61
2022/01/23 12:38:00;;;;;;;2.75;1.23;;;8.70;99.90;;;;;;10510011;28;20111;-63
2022/01/23 12:43:17;;;;;;;2.55;1.73;;;8.70;99.90;;;;;;10497798;28;20044;-61
2022/01/23 12:48:31;;;;;;;3.58;1.40;;;8.70;99.90;;;;;;10500172;28;20371;-62
2022/01/23 12:53:57;;;;;;;2.58;1.30;;;8.70;99.90;;;;;;10505492;28;20509;-61
2022/01/23 12:59:09;;;;;;;2.25;1.40;;;8.70;99.90;;;;;;10507201;28;20718;-59
2022/01/23 13:04:10;;;;;;;2.50;1.30;;;8.70;99.90;;;;;;10503063;28;20025;-63
2022/01/23 13:09:39;;;;;;;2.08;1.10;;;8.70;99.90;;;;;;10497935;28;20094;-63
2022/01/23 13:14:48;;;;;;;;;;;8.70;99.90;;;;;;10498293;28;20028;-64
2022/01/23 13:30:22;;;;;;;2.63;1.10;;;8.80;99.90;;;;;;10498302;28;20028;-63
2022/01/23 13:35:26;;;;;;;1.20;0.70;;;8.80;99.90;;;;;;10496975;28;20027;-60
2022/01/23 13:40:41;;;;;;;1.63;0.77;;;8.70;99.90;;;;;;10494984;28;20450;-62
2022/01/23 14:02:14;;;;;;;1.08;0.65;;;8.80;99.90;;;;;;10499980;28;20037;-60
2022/01/23 14:07:23;;;;;;;1.25;0.70;;;8.80;99.90;;;;;;10504476;28;20024;-61
2022/01/23 14:12:25;;;;;;;1.55;0.77;;;8.80;99.90;;;;;;10523759;28;20089;-60
2022/01/23 14:17:35;;;;;;;1.55;0.73;;;8.70;99.90;;;;;;10513530;28;20019;-62
2022/01/23 14:22:38;;;;;;;1.63;1.23;;;8.80;99.90;;;;;;10533252;28;20072;-60
2022/01/23 14:27:40;;;;;;;1.98;0.60;;;8.70;99.90;;;;;;10519974;28;20479;-61
2022/01/23 14:32:46;;;;;;;0.80;0.50;;;8.70;99.90;;;;;;10500198;28;20031;-65
2022/01/23 14:37:48;;;;;;;1.50;0.73;;;8.80;99.90;;;;;;10497009;28;20027;-61
2022/01/23 14:43:09;;;;;;;1.42;0.95;;;8.70;99.90;;;;;;10529755;28;20055;-63
2022/01/23 14:48:12;;;;;;;0.70;0.40;;;8.70;99.90;;;;;;10521880;28;20031;-62
2022/01/23 14:53:16;;;;;;;0.73;0.50;;;8.70;99.90;;;;;;10512580;28;20883;-63
2022/01/23 14:58:18;;;;;;;2.08;0.73;;;8.70;99.90;;;;;;10499458;28;20021;-62
2022/01/23 15:03:21;;;;;;;2.10;0.80;;;8.70;99.90;;;;;;10490695;28;20070;-61
2022/01/23 15:08:24;;;;;;;1.20;0.65;;;8.70;99.90;;;;;;10535209;28;20218;-62
2022/01/23 15:13:29;;;;;;;1.55;0.77;;;8.70;99.90;;;;;;10532570;28;20482;-62
2022/01/23 15:18:30;;;;;;;1.15;0.80;;;8.70;99.90;;;;;;10530753;28;20012;-63
2022/01/23 15:23:30;;;;;;;2.28;0.80;;;8.80;99.90;;;;;;10529241;28;20036;-63
2022/01/23 15:28:31;;;;;;;1.73;0.75;;;8.70;99.90;;;;;;10530663;28;20022;-64
2022/01/23 15:33:32;;;;;;;1.67;0.90;;;8.70;99.90;;;;;;10513782;28;20032;-62
2022/01/23 15:38:34;;;;;;;1.30;0.77;;;8.70;99.90;;;;;;10529132;28;20067;-61
2022/01/23 15:43:36;;;;;;;2.25;0.93;;;8.70;99.90;;;;;;10512663;28;20419;-63
2022/01/23 15:48:37;;;;;;;1.95;1.00;;;8.70;99.90;;;;;;10512999;28;20031;-64
2022/01/23 15:53:38;;;;;;;1.58;0.88;;;8.70;99.90;;;;;;10518722;28;20039;-63
2022/01/23 15:58:38;;;;;;;2.20;1.00;;;8.60;99.90;;;;;;10528074;28;20487;-62
2022/01/23 16:03:39;;;;;;;2.08;0.80;;;8.70;99.90;;;;;;10506407;28;20044;-61
2022/01/23 16:08:40;;;;;;;3.33;1.25;;;8.70;99.90;;;;;;10533871;28;20032;-61
2022/01/23 16:13:41;;;;;;;2.30;0.80;;;8.70;99.90;;;;;;10515704;28;20032;-62
2022/01/23 16:18:42;;;;;;;2.53;1.10;;;8.70;99.90;;;;;;10532541;28;20028;-60
2022/01/23 16:23:43;;;;;;;3.08;1.15;;;8.70;99.90;;;;;;10534494;28;20032;-62
2022/01/23 16:28:45;;;;;;;3.05;0.93;;;8.60;99.90;;;;;;10523932;28;20028;-64
2022/01/23 16:33:46;;;;;;;2.45;0.95;;;8.60;99.90;;;;;;10526414;28;20043;-64
2022/01/23 16:38:47;;;;;;;3.35;1.10;;;8.70;99.90;;;;;;10535334;28;20017;-60
2022/01/23 16:43:48;;;;;;;1.67;0.90;;;8.70;99.90;;;;;;10534042;28;20052;-65
2022/01/23 16:48:49;;;;;;;2.60;1.30;;;8.70;99.90;;;;;;10506103;28;20406;-65
2022/01/23 16:53:50;;;;;;;1.95;1.20;;;8.70;99.90;;;;;;10501558;28;20084;-63
2022/01/23 16:58:51;;;;;;;2.65;1.27;;;8.70;99.90;;;;;;10503025;28;20047;-64
2022/01/23 17:03:52;;;;;;;1.77;1.02;;;8.70;99.90;;;;;;10497067;28;20032;-66
2022/01/23 17:08:52;;;;;;;3.17;1.20;;;8.60;99.90;;;;;;10507107;28;20215;-61
2022/01/23 17:13:53;;;;;;;1.58;0.95;;;8.60;99.90;;;;;;10499171;28;20021;-65
2022/01/23 17:18:55;;;;;;;1.73;1.00;;;8.60;99.90;;;;;;10506022;28;20077;-68
2022/01/23 17:23:56;;;;;;;1.88;1.00;;;8.60;99.90;;;;;;10532130;28;20035;-65
2022/01/23 17:28:56;;;;;;;2.58;1.20;;;8.60;99.90;;;;;;10524756;28;20024;-68
2022/01/23 17:33:57;;;;;;;1.83;1.20;;;8.60;99.90;;;;;;10521440;28;20069;-62
2022/01/23 17:38:58;;;;;;;4.63;1.83;;;8.70;99.90;;;;;;10503319;28;20089;-69
2022/01/23 17:43:59;;;;;;;1.65;1.17;;;8.70;99.90;;;;;;10532924;28;20065;-66
2022/01/23 17:54:01;;;;;;;3.50;1.60;;;8.60;99.90;;;;;;10521921;28;20028;-65
2022/01/23 17:59:04;;;;;;;2.80;1.33;;;8.60;99.90;;;;;;10531449;28;20105;-62
2022/01/23 18:04:04;;;;;;;2.15;1.48;;;8.60;99.90;;;;;;10528415;28;20040;-66
2022/01/23 18:09:09;;;;;;;3.33;1.40;;;8.60;99.90;;;;;;10514046;28;20024;-67
2022/01/23 18:14:12;;;;;;;2.97;1.50;;;8.70;99.90;;;;;;10520142;28;20020;-67
2022/01/23 18:19:13;;;;;;;3.25;1.52;;;8.70;99.90;;;;;;10534113;28;20059;-68
2022/01/23 18:24:14;;;;;;;3.20;1.83;;;8.70;99.90;;;;;;10520340;28;20123;-66
2022/01/23 18:29:15;;;;;;;3.60;1.83;;;8.70;99.90;;;;;;10492053;28;20074;-66
2022/01/23 18:34:16;;;;;;;2.72;1.75;;;8.70;99.90;;;;;;10492772;28;20048;-66
2022/01/23 18:39:17;;;;;;;3.17;1.80;;;8.60;99.90;;;;;;10493769;28;20020;-66
2022/01/23 18:44:17;;;;;;;2.60;1.70;;;8.60;99.90;;;;;;10500355;28;20072;-68
2022/01/23 18:49:18;;;;;;;3.65;1.95;;;8.60;99.90;;;;;;10491970;28;20024;-62
2022/01/23 18:54:28;;;;;;;3.15;1.70;;;8.60;99.90;;;;;;10500660;28;20028;-62
2022/01/23 18:59:30;;;;;;;8.98;2.35;;;8.60;99.90;;;;;;10515486;28;20036;-63
2022/01/23 19:04:38;;;;;;;4.10;2.20;;;8.60;99.90;;;;;;10526139;28;20054;-66
2022/01/23 19:09:42;;;;;;;3.70;2.28;;;8.60;99.90;;;;;;10535851;28;20035;-62
2022/01/23 19:14:42;;;;;;;6.30;2.47;;;8.60;99.90;;;;;;10516432;28;20034;-63
2022/01/23 19:19:43;;;;;;;4.10;2.30;;;8.60;99.90;;;;;;10530278;28;20028;-63
2022/01/23 19:24:46;;;;;;;4.43;2.33;;;8.60;99.90;;;;;;10525017;28;20035;-63
2022/01/23 19:29:47;;;;;;;3.80;2.22;;;8.60;99.90;;;;;;10530686;28;20024;-63
2022/01/23 19:34:48;;;;;;;4.75;2.55;;;8.50;99.90;;;;;;10535634;28;20490;-66
2022/01/23 19:39:50;;;;;;;4.82;2.67;;;8.50;99.90;;;;;;10533938;28;20081;-61
2022/01/23 19:44:57;;;;;;;5.35;2.85;;;8.50;99.90;;;;;;10528471;28;20048;-64
2022/01/23 19:49:59;;;;;;;3.38;2.53;;;8.50;99.90;;;;;;10492734;28;20577;-70
2022/01/23 19:55:00;;;;;;;4.55;2.42;;;8.50;99.90;;;;;;10508614;28;20145;-63
2022/01/23 20:00:02;;;;;;;4.20;2.50;;;8.50;99.90;;;;;;10510294;28;20021;-65
2022/01/23 20:05:03;;;;;;;3.25;2.30;;;8.50;99.90;;;;;;10512685;28;20036;-61
2022/01/23 20:10:21;;;;;;;4.85;2.55;;;8.50;99.90;;;;;;10499465;28;20031;-65
2022/01/23 20:15:22;;;;;;;5.15;2.63;;;8.50;99.90;;;;;;10506116;28;20032;-68
2022/01/23 20:20:23;;;;;;;5.32;2.67;;;8.50;99.90;;;;;;10501773;28;20432;-71
2022/01/23 20:25:24;;;;;;;4.88;2.92;;;8.50;99.90;;;;;;10502499;28;20069;-67
2022/01/23 20:30:24;;;;;;;4.82;2.72;;;8.50;99.90;;;;;;10508208;28;20149;-68
2022/01/23 20:35:25;;;;;;;4.25;2.70;;;8.50;99.90;;;;;;10502420;28;20025;-69
2022/01/23 20:40:36;;;;;;;6.30;2.80;;;8.50;99.90;;;;;;10494808;28;20024;-69
2022/01/23 20:45:36;;;;;;;5.00;2.60;;;8.50;99.90;;;;;;10427923;28;1211342;-65
2022/01/23 20:50:47;;;;;;;4.15;2.80;;;8.50;99.90;;;;;;10446352;28;20502;-65
2022/01/23 20:55:48;;;;;;;3.50;2.50;;;8.40;99.90;;;;;;10445807;28;20036;-68
2022/01/23 21:00:49;;;;;;;3.83;2.42;;;8.40;99.90;;;;;;10466131;28;20033;-67
2022/01/23 21:05:50;;;;;;;3.67;2.60;;;8.40;99.90;;;;;;10474470;28;20065;-69
2022/01/23 21:10:54;;;;;;;4.28;2.83;;;8.40;99.90;;;;;;10465395;28;20028;-64
2022/01/23 21:41:47;;;;;;;4.15;2.67;;;8.40;99.90;;;;;;10466253;28;20044;-67
2022/01/23 21:46:48;;;;;;;5.13;2.80;;;8.40;99.90;;;;;;10482178;28;20527;-67
2022/01/23 21:51:49;;;;;;;4.55;2.85;;;8.40;99.90;;;;;;10481283;28;20035;-68
2022/01/23 21:56:49;;;;;;;5.00;2.67;;;8.40;99.90;;;;;;10478314;28;20032;-67
2022/01/23 22:01:50;;;;;;;5.45;3.00;;;8.40;99.90;;;;;;10489855;28;20028;-69
2022/01/23 22:06:53;;;;;;;4.43;2.60;;;8.40;99.90;;;;;;10497519;28;20033;-64
2022/01/23 22:12:14;;;;;;;4.22;2.70;;;8.40;99.90;;;;;;10475903;28;20040;-61
2022/01/23 22:17:15;;;;;;;3.78;2.35;;;8.40;99.90;;;;;;10470704;28;20104;-61
2022/01/23 22:22:33;;;;;;;4.05;2.20;;;8.60;99.90;;;;;;10472809;28;20032;-64
2022/01/23 22:27:33;;;;;;;6.63;2.60;;;8.60;99.90;;;;;;10464067;28;20029;-67
2022/01/23 22:32:34;;;;;;;3.92;2.30;;;8.50;99.90;;;;;;10461633;28;20495;-66
2022/01/23 22:37:41;;;;;;;6.00;3.10;;;8.50;99.90;;;;;;10473522;28;20029;-64
2022/01/23 22:42:45;;;;;;;5.20;2.30;;;8.50;99.90;;;;;;10475718;28;20529;-64
2022/01/23 22:47:46;;;;;;;3.90;2.17;;;8.50;99.90;;;;;;10516155;28;20089;-62
2022/01/23 22:52:47;;;;;;;6.22;2.70;;;8.40;99.90;;;;;;10523053;28;20069;-60
2022/01/23 22:57:48;;;;;;;5.43;2.47;;;8.40;99.90;;;;;;10536371;28;20072;-60
2022/01/23 23:02:48;;;;;;;4.65;2.20;;;8.40;99.90;;;;;;10519939;28;20051;-62
2022/01/23 23:07:49;;;;;;;4.65;2.88;;;8.40;99.90;;;;;;10530813;28;20036;-60
2022/01/23 23:12:50;;;;;;;4.85;2.60;;;8.40;99.90;;;;;;10528062;28;20069;-59
2022/01/23 23:17:51;;;;;;;4.22;2.55;;;8.40;99.90;;;;;;10521900;28;20029;-61
2022/01/23 23:22:52;;;;;;;3.92;2.50;;;8.40;99.90;;;;;;10511042;28;20112;-61
2022/01/23 23:27:52;;;;;;;3.40;2.22;;;8.40;99.90;;;;;;10508767;28;20058;-60
2022/01/23 23:32:53;;;;;;;5.00;2.80;;;8.40;99.90;;;;;;10517313;28;20036;-62
2022/01/23 23:37:54;;;;;;;4.90;2.88;;;8.40;99.90;;;;;;10510280;28;20020;-60
2022/01/23 23:43:06;;;;;;;4.20;2.20;;;8.40;99.90;;;;;;10520541;28;20040;-60
2022/01/23 23:48:07;;;;;;;4.45;2.50;;;8.30;99.90;;;;;;10520333;28;20436;-61
2022/01/23 23:53:08;;;;;;;5.35;2.78;;;8.40;99.90;;;;;;10527298;28;20157;-59
2022/01/23 23:58:09;;;;;;;4.05;2.70;;;8.30;99.90;;;;;;10537440;28;20020;-63
